Sunday, May 27, 2018, 3:44 PM GMT
Back to Local

CYUL, Montreal / Pierre Elliot Trudeau International Airport, Que

Location: , , Canada Lat: 45.467
Local Time: 3:44 PM GMT (15:44 GMT) Lon: -73.75
Time Zone: GMT Elev: 101 ft

Show me the last for .
Show Decoded

2018-05-27 15:00 METAR CYUL 271500Z 12011G19KT 30SM BKN052 BKN060 OVC140 19/11 A3005 RMK
                 SC5SC2AS1 SLP176 DENSITY ALT 600FT =
2018-05-27 14:00 METAR CYUL 271400Z 06009KT 15SM BKN050 BKN060 OVC140 17/09 A3005 RMK SC5SC2AS1
                 SLP177 DENSITY ALT 200FT =
2018-05-27 13:00 METAR CYUL 271300Z 03012KT 15SM SCT035 BKN160 OVC240 16/08 A3004 RMK SC4AC3CI1
                 SLP175 =
2018-05-27 12:00 METAR CYUL 271200Z 03009KT 15SM BKN034 BKN180 BKN240 14/06 A3004 RMK SC6AC1CI1
                 AC TR SLP173 =
2018-05-27 11:00 METAR CYUL 271100Z 03012KT 15SM BKN038 BKN180 OVC240 13/06 A3002 RMK SC6AC1CI1
                 SLP167 =
2018-05-27 10:00 METAR CYUL 271000Z 04012KT 15SM FEW040 SCT180 OVC250 12/05 A3001 RMK SC1AC4CI4
                 SC TR SLP163 =
2018-05-27 09:00 METAR CYUL 270900Z CCA 03011KT 15SM BKN190 BKN220 12/06 A3000 RMK AC5CI2 SLP162
                 =
2018-05-27 08:00 METAR CYUL 270800Z 02011KT 15SM FEW200 BKN250 13/07 A3000 RMK CC2CI5 SLP159 =
2018-05-27 07:00 METAR CYUL 270700Z 02010KT 15SM FEW210 BKN250 13/07 A3000 RMK CC1CI5 CC TR
                 SLP159 =
2018-05-27 06:00 METAR CYUL 270600Z 02011KT 15SM SCT210 BKN250 15/05 A2999 RMK CC4CI2 SLP158 =
2018-05-27 05:00 METAR CYUL 270500Z 04009KT 15SM FEW220 BKN250 15/04 A3000 RMK CC1CI5 SLP159 =
2018-05-27 04:00 METAR CYUL 270400Z 05008KT 15SM FEW220 BKN250 14/04 A2999 RMK CC1CI5 CC TR
                 SLP157 =
2018-05-27 03:00 METAR CYUL 270300Z 05008KT 15SM FEW210 BKN250 16/04 A2997 RMK CC1CI5 CC TR
                 SLP152 DENSITY ALT 200FT =
2018-05-27 02:00 METAR CYUL 270200Z 05007KT 15SM FEW220 BKN250 17/04 A2996 RMK CC1CI5 SLP147
                 DENSITY ALT 400FT =
2018-05-27 01:00 METAR CYUL 270100Z 07005KT 30SM SCT220 BKN260 18/04 A2993 RMK CC3CI4 SLP138
                 DENSITY ALT 500FT =
2018-05-27 00:00 METAR CYUL 270000Z 05007KT 30SM SCT220 BKN260 19/04 A2992 RMK CC4CI3 SLP132
                 DENSITY ALT 600FT =
2018-05-26 23:00 METAR CYUL 262300Z 07007KT 30SM FEW060 FEW180 BKN250 22/01 A2989 RMK CU1AC2CS5
                 CU TR SLP124 DENSITY ALT 1000FT =
2018-05-26 22:00 METAR CYUL 262200Z 07011KT 30SM FEW060 FEW090 FEW160 OVC250 22/05 A2987 RMK
                 CU1AC1AC2CS6 CU TR AC TR SLP118 DENSITY ALT 1100FT =
2018-05-26 21:00 METAR CYUL 262100Z 11005KT 080V150 30SM FEW055 FEW080 FEW180 OVC240 23/09 A2986
                 RMK CU1AC1AC2CS6 CU TR AC TR SLP115 DENSITY ALT 1200FT =
2018-05-26 20:00 METAR CYUL 262000Z 06005KT 15SM FEW055 FEW080 SCT180 OVC230 23/08 A2985 RMK
                 CU1AC1AC3CS5 CU TR AC TR SLP110 DENSITY ALT 1100FT =
2018-05-26 19:00 METAR CYUL 261900Z 07005KT 030V160 15SM FEW050 FEW080 FEW180 OVC220 22/09 A2984
                 RMK CU1AC1AC1CS6 CU TR SLP107 DENSITY ALT 1100FT =
2018-05-26 18:00 METAR CYUL 261800Z 07006KT 15SM FEW040 FEW075 BKN180 OVC250 21/10 A2983 RMK
                 CU1AC1AC5CS2 CU TR SLP103 DENSITY ALT 1000FT =
2018-05-26 17:00 METAR CYUL 261700Z 08007KT 15SM FEW030 BKN070 BKN250 19/12 A2982 RMK SC1AC4CI2
                 CU ASOCTD SLP101 DENSITY ALT 800FT =
2018-05-26 16:00 METAR CYUL 261600Z 04013KT 15SM FEW009 OVC022 17/11 A2981 RMK SF1SC8 SF TR
                 SLP096 DENSITY ALT 500FT =

Support USWX by starting your Amazon purchase here.